Time;durP1;ratioP1;P1;durP2;ratioP2;P2;SDS_P1;SDS_P2;PMS_P1;PMS_P2;Temp;Humidity;BMP_temperature;BMP_pressure;BME280_temperature;BME280_humidity;BME280_pressure;Samples;Min_cycle;Max_cycle;Signal;HPM_P1;HPM_P2
2021/01/31 00:02:16;;;;;;;6.57;5.97;;;3.80;99.90;;;;;;5046864;28;20059;-76
2021/01/31 00:04:46;;;;;;;7.88;7.18;;;3.90;99.90;;;;;;5055136;28;20107;-76
2021/01/31 00:07:12;;;;;;;6.85;6.30;;;3.90;99.90;;;;;;5040677;28;20030;-76
2021/01/31 00:09:38;;;;;;;7.30;6.70;;;3.90;99.90;;;;;;5034607;28;20037;-74
2021/01/31 00:12:04;;;;;;;7.45;6.85;;;3.90;99.90;;;;;;5042771;28;20030;-74
2021/01/31 00:14:29;;;;;;;7.22;6.63;;;3.90;99.90;;;;;;5035105;28;20108;-75
2021/01/31 00:16:55;;;;;;;7.43;6.82;;;3.70;99.90;;;;;;5046030;28;20032;-73
2021/01/31 00:19:20;;;;;;;7.93;7.22;;;3.80;99.90;;;;;;5054395;28;20036;-74
2021/01/31 00:21:46;;;;;;;8.25;7.55;;;3.80;99.90;;;;;;5054197;28;20029;-75
2021/01/31 00:24:11;;;;;;;8.13;7.43;;;3.70;99.90;;;;;;5050176;28;20029;-74
2021/01/31 00:26:37;;;;;;;8.52;7.70;;;3.70;99.90;;;;;;5035697;28;20026;-74
2021/01/31 00:29:03;;;;;;;8.35;7.65;;;3.70;99.90;;;;;;5046409;28;20055;-74
2021/01/31 00:31:29;;;;;;;8.07;7.38;;;3.80;99.90;;;;;;5054917;28;20029;-75
2021/01/31 00:33:54;;;;;;;8.25;7.47;;;3.80;99.90;;;;;;5048077;28;20017;-74
2021/01/31 00:36:20;;;;;;;8.80;8.00;;;3.80;99.90;;;;;;5034530;28;20044;-75
2021/01/31 00:38:46;;;;;;;8.48;7.78;;;3.80;99.90;;;;;;5035384;28;20404;-74
2021/01/31 00:41:11;;;;;;;9.73;7.47;;;3.80;99.90;;;;;;5055014;28;20040;-75
2021/01/31 00:43:37;;;;;;;8.80;8.00;;;3.80;99.90;;;;;;5055323;28;20025;-74
2021/01/31 00:46:02;;;;;;;8.27;7.57;;;3.80;99.90;;;;;;5054015;28;20107;-73
2021/01/31 00:48:28;;;;;;;8.82;8.02;;;3.80;99.90;;;;;;5051949;28;20391;-74
2021/01/31 00:50:54;;;;;;;8.90;8.00;;;3.70;99.90;;;;;;5035226;28;20485;-74
2021/01/31 00:53:19;;;;;;;9.43;8.40;;;3.60;99.90;;;;;;5042117;28;20029;-74
2021/01/31 00:55:45;;;;;;;9.93;9.02;;;3.50;99.90;;;;;;5042905;28;20311;-75
2021/01/31 00:58:10;;;;;;;8.48;7.75;;;3.40;99.90;;;;;;5042288;28;20024;-74
2021/01/31 01:00:39;;;;;;;8.23;7.47;;;3.60;99.90;;;;;;5051306;28;20040;-75
2021/01/31 01:03:05;;;;;;;8.68;7.88;;;3.80;99.90;;;;;;5040558;28;20097;-75
2021/01/31 01:05:32;;;;;;;9.00;8.20;;;3.80;99.90;;;;;;5054054;28;20029;-75
2021/01/31 01:07:58;;;;;;;9.27;8.40;;;3.80;99.90;;;;;;5047988;28;20048;-76
2021/01/31 01:10:29;;;;;;;10.13;9.15;;;3.90;99.90;;;;;;5049772;28;20150;-74
2021/01/31 01:12:55;;;;;;;10.00;9.00;;;4.00;99.90;;;;;;5053739;28;20028;-76
2021/01/31 01:15:25;;;;;;;9.20;8.40;;;4.00;99.90;;;;;;5047978;28;20032;-74
2021/01/31 01:17:51;;;;;;;9.38;8.57;;;4.00;99.90;;;;;;5034259;28;20036;-75
2021/01/31 01:20:17;;;;;;;11.52;10.43;;;3.90;99.90;;;;;;5033028;28;20065;-75
2021/01/31 01:22:43;;;;;;;10.38;9.35;;;3.70;99.90;;;;;;5049938;28;20499;-75
2021/01/31 01:25:10;;;;;;;10.18;9.18;;;3.50;99.90;;;;;;5033970;28;20122;-74
2021/01/31 01:27:38;;;;;;;9.90;9.00;;;3.60;99.90;;;;;;5034199;28;20530;-75
2021/01/31 01:30:05;;;;;;;10.68;9.73;;;3.60;99.90;;;;;;5046201;28;20067;-76
2021/01/31 01:32:31;;;;;;;10.00;8.95;;;3.60;99.90;;;;;;5054382;28;20442;-75
2021/01/31 01:34:56;;;;;;;10.10;9.13;;;3.70;99.90;;;;;;5050977;28;20025;-74
2021/01/31 01:37:22;;;;;;;11.18;10.10;;;3.80;99.90;;;;;;5053667;28;20033;-75
2021/01/31 01:39:47;;;;;;;10.23;9.32;;;3.90;99.90;;;;;;5035461;28;20112;-74
2021/01/31 01:42:14;;;;;;;10.40;9.40;;;3.90;99.90;;;;;;5033925;28;20093;-75
2021/01/31 01:44:39;;;;;;;11.77;10.60;;;3.90;99.90;;;;;;5033586;28;20036;-74
2021/01/31 01:47:18;;;;;;;11.73;10.68;;;4.00;99.90;;;;;;5034959;28;20049;-75
2021/01/31 01:49:46;;;;;;;10.88;9.10;;;4.00;99.90;;;;;;5053000;28;20726;-73
2021/01/31 01:52:25;;;;;;;10.77;9.77;;;4.00;99.90;;;;;;5046265;28;20072;-74
2021/01/31 01:54:57;;;;;;;10.13;9.23;;;4.00;99.90;;;;;;5046080;28;20100;-74
2021/01/31 01:57:27;;;;;;;11.02;9.98;;;4.00;99.90;;;;;;5050926;28;20021;-75
2021/01/31 01:59:55;;;;;;;10.77;9.75;;;3.90;99.90;;;;;;5054490;28;20159;-75
2021/01/31 02:02:25;;;;;;;10.88;9.88;;;3.90;99.90;;;;;;5045480;28;20096;-74
2021/01/31 02:04:52;;;;;;;10.50;9.50;;;3.90;99.90;;;;;;5036193;28;20028;-73
2021/01/31 02:07:18;;;;;;;8.77;7.97;;;3.90;99.90;;;;;;5038214;28;20036;-75
2021/01/31 02:09:51;;;;;;;12.70;11.45;;;3.90;99.90;;;;;;5043442;28;20029;-74
2021/01/31 02:12:25;;;;;;;9.98;9.07;;;3.70;99.90;;;;;;5055518;28;20056;-74
2021/01/31 02:14:52;;;;;;;9.85;8.90;;;3.90;99.90;;;;;;5057302;28;20021;-74
2021/01/31 02:17:59;;;;;;;10.20;9.25;;;4.00;99.90;;;;;;5054840;28;20021;-74
2021/01/31 02:20:53;;;;;;;9.90;8.98;;;3.90;99.90;;;;;;5038522;28;20100;-74
2021/01/31 02:23:37;;;;;;;9.48;8.45;;;3.90;99.90;;;;;;5052170;28;20356;-74
2021/01/31 02:26:11;;;;;;;10.55;9.55;;;3.80;99.90;;;;;;5051318;28;20340;-73
2021/01/31 02:28:39;;;;;;;9.77;8.88;;;3.80;99.90;;;;;;5056717;28;20021;-74
2021/01/31 02:31:26;;;;;;;9.82;8.93;;;3.90;99.90;;;;;;5035240;28;20248;-74
2021/01/31 02:34:25;;;;;;;9.95;9.05;;;3.90;99.90;;;;;;5055803;28;20017;-74
2021/01/31 02:37:06;;;;;;;11.32;10.32;;;3.90;99.90;;;;;;5054619;28;20021;-74
2021/01/31 02:39:46;;;;;;;10.23;9.25;;;3.90;99.90;;;;;;5041451;28;20033;-75
2021/01/31 02:42:39;;;;;;;10.00;9.10;;;3.80;99.90;;;;;;5037097;28;20026;-74
2021/01/31 02:45:40;;;;;;;11.68;9.98;;;3.90;99.90;;;;;;5036845;28;20044;-74
2021/01/31 02:48:11;;;;;;;9.82;8.95;;;3.90;99.90;;;;;;5018487;28;20116;-75
2021/01/31 02:50:42;;;;;;;11.05;9.88;;;3.90;99.90;;;;;;5038346;28;20124;-74
2021/01/31 02:53:15;;;;;;;10.40;9.38;;;3.80;99.90;;;;;;5037658;28;20032;-74
2021/01/31 02:55:58;;;;;;;11.85;10.63;;;3.80;99.90;;;;;;5035592;28;20512;-74
2021/01/31 02:58:34;;;;;;;10.55;9.55;;;3.70;99.90;;;;;;5037307;28;20465;-74
2021/01/31 03:01:07;;;;;;;11.27;10.18;;;3.60;99.90;;;;;;5035619;28;20049;-73
2021/01/31 03:03:50;;;;;;;11.55;10.40;;;3.60;99.90;;;;;;5058938;28;20469;-72
2021/01/31 03:06:25;;;;;;;11.52;10.40;;;3.60;99.90;;;;;;5051383;28;20048;-75
2021/01/31 03:09:33;;;;;;;12.82;11.52;;;3.60;99.90;;;;;;5047267;28;20188;-74
2021/01/31 03:12:03;;;;;;;11.05;9.95;;;3.70;99.90;;;;;;5053035;28;20578;-73
2021/01/31 03:14:36;;;;;;;12.65;10.75;;;3.60;99.90;;;;;;5048020;28;20518;-73
2021/01/31 03:17:30;;;;;;;11.13;10.02;;;3.50;99.90;;;;;;5050524;28;20060;-74
2021/01/31 03:20:07;;;;;;;11.60;10.38;;;3.50;99.90;;;;;;5052777;28;20039;-74
2021/01/31 03:22:50;;;;;;;11.80;10.68;;;3.20;99.90;;;;;;5057252;28;20070;-73
2021/01/31 03:25:29;;;;;;;12.27;11.07;;;3.10;99.90;;;;;;5057147;28;20025;-74
2021/01/31 03:27:55;;;;;;;12.07;10.80;;;2.90;99.90;;;;;;5052886;28;20041;-73
2021/01/31 03:30:20;;;;;;;13.43;11.05;;;2.80;99.90;;;;;;5036630;28;20404;-74
2021/01/31 03:32:54;;;;;;;13.00;11.70;;;2.90;99.90;;;;;;5038024;28;20087;-73
2021/01/31 03:35:30;;;;;;;12.75;11.45;;;3.00;99.90;;;;;;5048202;28;20021;-74
2021/01/31 03:38:10;;;;;;;13.32;11.43;;;2.90;99.90;;;;;;5055456;28;20081;-75
2021/01/31 03:40:37;;;;;;;11.73;10.63;;;3.10;99.90;;;;;;5055789;28;20028;-75
2021/01/31 03:43:03;;;;;;;13.18;11.00;;;3.20;99.90;;;;;;5048774;28;20029;-74
2021/01/31 03:45:51;;;;;;;12.45;11.25;;;3.30;99.90;;;;;;5037070;28;20056;-75
2021/01/31 03:48:23;;;;;;;13.45;12.07;;;3.40;99.90;;;;;;5050009;28;20030;-74
2021/01/31 03:50:48;;;;;;;12.75;10.95;;;3.40;99.90;;;;;;5044642;28;20063;-73
2021/01/31 03:53:14;;;;;;;12.38;11.07;;;3.40;99.90;;;;;;5038563;28;20100;-74
2021/01/31 03:55:43;;;;;;;12.07;10.88;;;3.50;99.90;;;;;;5040450;28;20179;-74
2021/01/31 03:58:14;;;;;;;12.90;11.52;;;3.50;99.90;;;;;;5038039;28;20489;-73
2021/01/31 04:00:51;;;;;;;12.88;11.52;;;3.30;99.90;;;;;;5039623;28;20033;-74
2021/01/31 04:03:43;;;;;;;12.80;11.63;;;3.30;99.90;;;;;;5046796;28;20037;-73
2021/01/31 04:06:19;;;;;;;13.07;11.73;;;3.30;99.90;;;;;;5046389;28;20037;-73
2021/01/31 04:08:53;;;;;;;12.07;10.98;;;3.30;99.90;;;;;;5054454;28;20163;-74
2021/01/31 04:11:34;;;;;;;13.13;11.82;;;3.30;99.90;;;;;;5044979;28;20040;-73
2021/01/31 04:14:16;;;;;;;12.07;10.82;;;3.10;99.90;;;;;;5043250;28;20179;-74
2021/01/31 04:16:49;;;;;;;12.57;10.82;;;3.10;99.90;;;;;;5049330;28;21354;-76
2021/01/31 04:19:16;;;;;;;11.52;10.40;;;3.20;99.90;;;;;;5036832;28;20083;-73
2021/01/31 04:21:42;;;;;;;13.27;11.88;;;3.30;99.90;;;;;;5043282;28;20032;-75
2021/01/31 04:24:11;;;;;;;13.02;11.73;;;3.10;99.90;;;;;;5043630;28;20025;-74
2021/01/31 04:26:37;;;;;;;12.73;11.43;;;3.00;99.90;;;;;;5047025;28;20538;-73
2021/01/31 04:29:03;;;;;;;11.95;10.73;;;3.00;99.90;;;;;;5050516;28;20506;-72
2021/01/31 04:31:29;;;;;;;11.77;10.68;;;3.00;99.90;;;;;;5050408;28;20030;-73
2021/01/31 04:33:55;;;;;;;12.13;11.02;;;3.30;99.90;;;;;;5048354;28;20045;-73
2021/01/31 04:36:22;;;;;;;11.88;10.73;;;3.30;99.90;;;;;;5039047;28;20033;-74
2021/01/31 04:38:47;;;;;;;11.65;10.55;;;3.50;99.90;;;;;;5053452;28;20024;-74
2021/01/31 04:41:14;;;;;;;11.55;10.45;;;3.40;99.90;;;;;;5046368;28;20403;-74
2021/01/31 04:43:39;;;;;;;12.02;10.73;;;3.40;99.90;;;;;;5046527;28;20081;-73
2021/01/31 04:46:09;;;;;;;12.63;11.38;;;3.50;99.90;;;;;;5051901;28;20495;-74
2021/01/31 04:49:05;;;;;;;12.68;11.13;;;3.30;99.90;;;;;;5051056;28;20025;-74
2021/01/31 04:52:10;;;;;;;12.13;10.80;;;3.30;99.90;;;;;;5045276;28;20425;-74
2021/01/31 04:54:46;;;;;;;12.02;10.70;;;3.50;99.90;;;;;;5041525;28;20059;-73
2021/01/31 04:57:33;;;;;;;12.32;11.13;;;3.60;99.90;;;;;;5051135;28;20032;-73
2021/01/31 05:00:01;;;;;;;11.23;10.00;;;3.50;99.90;;;;;;5033380;28;20072;-74
2021/01/31 05:02:36;;;;;;;10.25;9.23;;;3.60;99.90;;;;;;5033365;28;20530;-73
2021/01/31 05:05:02;;;;;;;11.35;10.15;;;3.60;99.90;;;;;;5050754;28;20063;-73
2021/01/31 05:07:40;;;;;;;9.98;8.82;;;3.60;99.90;;;;;;5034236;28;20067;-72
2021/01/31 05:10:06;;;;;;;9.18;8.27;;;3.60;99.90;;;;;;5042488;28;20033;-73
2021/01/31 05:12:39;;;;;;;8.48;7.43;;;3.60;99.90;;;;;;5047602;28;20139;-74
2021/01/31 05:15:21;;;;;;;8.93;8.13;;;3.60;99.90;;;;;;5055981;28;20021;-74
2021/01/31 05:17:50;;;;;;;9.52;8.63;;;3.50;99.90;;;;;;5037608;28;20053;-74
2021/01/31 05:20:21;;;;;;;8.82;8.02;;;3.50;99.90;;;;;;5045440;28;20029;-74
2021/01/31 05:22:50;;;;;;;8.88;8.07;;;3.60;99.90;;;;;;5045947;28;20052;-74
2021/01/31 05:25:18;;;;;;;8.40;7.60;;;3.50;99.90;;;;;;5048690;28;20760;-74
2021/01/31 05:27:45;;;;;;;8.50;7.70;;;3.50;99.90;;;;;;5052198;28;20040;-74
2021/01/31 05:30:11;;;;;;;10.23;9.23;;;3.40;99.90;;;;;;5051421;28;20029;-74
2021/01/31 05:33:14;;;;;;;9.38;8.43;;;3.50;99.90;;;;;;5037752;28;20021;-73
2021/01/31 05:35:39;;;;;;;9.63;8.30;;;3.50;99.90;;;;;;5010217;28;20030;-74
2021/01/31 05:38:05;;;;;;;9.60;8.70;;;3.50;99.90;;;;;;5041648;28;20112;-73
2021/01/31 05:40:35;;;;;;;9.73;8.65;;;3.40;99.90;;;;;;5040593;28;20036;-74
2021/01/31 05:43:01;;;;;;;10.25;9.27;;;3.30;99.90;;;;;;5039046;28;20022;-74
2021/01/31 05:45:38;;;;;;;9.82;8.93;;;3.40;99.90;;;;;;5050509;28;20426;-74
2021/01/31 05:48:18;;;;;;;9.57;8.57;;;3.40;99.90;;;;;;5054162;28;20024;-73
2021/01/31 05:50:45;;;;;;;12.40;8.93;;;3.40;99.90;;;;;;5042538;28;20480;-73
2021/01/31 05:53:26;;;;;;;10.63;8.95;;;3.50;99.90;;;;;;5046016;28;20045;-75
2021/01/31 05:56:11;;;;;;;9.65;8.75;;;3.40;99.90;;;;;;5043087;28;20104;-74
2021/01/31 05:58:37;;;;;;;10.45;9.43;;;3.40;99.90;;;;;;5046337;28;20025;-74
2021/01/31 06:01:06;;;;;;;11.38;10.27;;;3.40;99.90;;;;;;5045230;28;20091;-74
2021/01/31 06:03:32;;;;;;;10.18;9.10;;;3.40;99.90;;;;;;5051131;28;20067;-73
2021/01/31 06:06:23;;;;;;;10.38;9.35;;;3.50;99.90;;;;;;5051219;28;20033;-73
2021/01/31 06:08:52;;;;;;;9.45;8.55;;;3.50;99.90;;;;;;5041599;28;20496;-73
2021/01/31 06:11:30;;;;;;;9.93;9.00;;;3.40;99.90;;;;;;5044561;28;20032;-73
2021/01/31 06:14:14;;;;;;;9.93;9.02;;;3.50;99.90;;;;;;5066983;28;20029;-74
2021/01/31 06:16:42;;;;;;;10.20;9.20;;;3.50;99.90;;;;;;5064862;28;20033;-73
2021/01/31 06:19:23;;;;;;;9.45;8.60;;;3.40;99.90;;;;;;5055180;28;20451;-74
2021/01/31 06:21:49;;;;;;;10.80;9.23;;;3.50;99.90;;;;;;5048982;28;20036;-74
2021/01/31 06:24:35;;;;;;;9.38;8.48;;;3.50;99.90;;;;;;5039267;28;20036;-74
2021/01/31 06:27:01;;;;;;;10.35;9.32;;;3.40;99.90;;;;;;5032180;28;20129;-74
2021/01/31 06:29:32;;;;;;;9.73;8.82;;;3.50;99.90;;;;;;5056186;28;20031;-74
2021/01/31 06:32:03;;;;;;;11.65;10.45;;;3.50;99.90;;;;;;5051244;28;20395;-74
2021/01/31 06:34:29;;;;;;;10.13;9.10;;;3.50;99.90;;;;;;5050120;28;20079;-75
2021/01/31 06:37:34;;;;;;;9.45;8.45;;;3.50;99.90;;;;;;5055370;28;20033;-72
2021/01/31 06:40:14;;;;;;;9.68;8.70;;;3.50;99.90;;;;;;5060627;28;20033;-72
2021/01/31 06:42:55;;;;;;;10.18;9.18;;;3.40;99.90;;;;;;5054029;28;20136;-72
2021/01/31 06:45:37;;;;;;;10.73;9.57;;;3.40;99.90;;;;;;5053119;28;20025;-73
2021/01/31 06:48:16;;;;;;;10.15;9.13;;;3.40;99.90;;;;;;5053175;28;20108;-73
2021/01/31 06:51:00;;;;;;;9.73;8.73;;;3.50;99.90;;;;;;5050169;28;20037;-74
2021/01/31 06:54:01;;;;;;;11.75;10.55;;;3.50;99.90;;;;;;5062492;28;20025;-73
2021/01/31 06:56:54;;;;;;;12.48;9.75;;;3.40;99.90;;;;;;5033899;23;20074;-71
2021/01/31 06:59:39;;;;;;;11.13;9.88;;;3.50;99.90;;;;;;4997561;28;20019;-72
2021/01/31 07:02:22;;;;;;;10.15;9.15;;;3.50;99.90;;;;;;4992521;28;20054;-71
2021/01/31 07:05:13;;;;;;;13.50;9.80;;;3.60;99.90;;;;;;4996608;28;20018;-71
2021/01/31 07:08:16;;;;;;;10.88;9.77;;;3.60;99.90;;;;;;4973103;28;20562;-73
2021/01/31 07:11:03;;;;;;;13.65;10.40;;;3.60;99.90;;;;;;4976547;28;20178;-71
2021/01/31 07:13:40;;;;;;;11.77;10.55;;;3.40;99.90;;;;;;4979441;28;20027;-71
2021/01/31 07:16:18;;;;;;;10.85;9.75;;;3.50;99.90;;;;;;4993149;28;20061;-71
2021/01/31 07:18:53;;;;;;;12.60;10.63;;;3.50;99.90;;;;;;4975393;28;20052;-71
2021/01/31 07:21:30;;;;;;;11.15;10.10;;;3.50;99.90;;;;;;4976660;28;20027;-72
2021/01/31 07:24:01;;;;;;;11.25;10.15;;;3.50;99.90;;;;;;4975053;28;20402;-72
2021/01/31 07:26:54;;;;;;;11.10;9.98;;;3.50;99.90;;;;;;4976003;28;20030;-72
2021/01/31 07:29:31;;;;;;;11.48;9.98;;;3.60;99.90;;;;;;4977784;28;20050;-72
2021/01/31 07:32:01;;;;;;;11.82;9.88;;;3.50;99.90;;;;;;4993242;28;20089;-72
2021/01/31 07:34:37;;;;;;;10.97;9.73;;;3.70;99.90;;;;;;4979336;28;20046;-72
2021/01/31 07:37:07;;;;;;;11.70;10.52;;;3.80;99.90;;;;;;4976116;28;20074;-72
2021/01/31 07:39:46;;;;;;;11.13;9.88;;;3.60;99.90;;;;;;4978631;28;20387;-71
2021/01/31 07:42:14;;;;;;;10.13;9.18;;;3.60;99.90;;;;;;4984032;28;20058;-71
2021/01/31 07:44:40;;;;;;;10.10;9.20;;;3.70;99.90;;;;;;4980915;28;20015;-71
2021/01/31 07:47:06;;;;;;;11.00;9.90;;;3.80;99.90;;;;;;4980097;28;20106;-72
2021/01/31 07:49:59;;;;;;;9.57;8.68;;;3.90;99.90;;;;;;4976189;28;20055;-72
2021/01/31 07:52:27;;;;;;;8.93;8.02;;;3.90;99.90;;;;;;4990461;28;20030;-71
2021/01/31 07:55:18;;;;;;;8.95;8.15;;;3.90;99.90;;;;;;4975628;28;20398;-71
2021/01/31 07:58:01;;;;;;;9.63;8.68;;;3.90;99.90;;;;;;4974845;28;20031;-71
2021/01/31 08:00:39;;;;;;;9.90;8.85;;;4.00;99.90;;;;;;4977144;28;20494;-72
2021/01/31 08:03:36;;;;;;;9.57;8.63;;;3.90;99.90;;;;;;4977509;28;20038;-71
2021/01/31 08:06:07;;;;;;;9.07;8.18;;;3.90;99.90;;;;;;4978559;28;20038;-71
2021/01/31 08:08:43;;;;;;;8.38;7.57;;;3.90;99.90;;;;;;4976019;28;20073;-71
2021/01/31 08:11:17;;;;;;;9.10;8.20;;;3.90;99.90;;;;;;4976506;28;20498;-72
2021/01/31 08:13:51;;;;;;;9.23;8.32;;;3.80;99.90;;;;;;4976704;28;20105;-71
2021/01/31 08:16:53;;;;;;;8.00;7.25;;;3.80;99.90;;;;;;4975947;28;20054;-71
2021/01/31 08:19:19;;;;;;;10.02;9.13;;;3.90;99.90;;;;;;4972115;28;20027;-72
2021/01/31 08:21:50;;;;;;;9.38;8.48;;;3.90;99.90;;;;;;4995218;28;20038;-72
2021/01/31 08:24:54;;;;;;;8.80;8.00;;;3.90;99.90;;;;;;5010148;28;20022;-70
2021/01/31 08:27:42;;;;;;;8.23;7.50;;;4.00;99.90;;;;;;5004395;28;20022;-72
2021/01/31 08:30:53;;;;;;;9.43;8.40;;;4.00;99.90;;;;;;4998387;28;20043;-71
2021/01/31 08:33:29;;;;;;;9.30;8.40;;;4.00;99.90;;;;;;4991214;28;20047;-70
2021/01/31 08:36:18;;;;;;;9.20;8.30;;;4.10;99.90;;;;;;4985835;28;20591;-72
2021/01/31 08:38:48;;;;;;;8.90;8.02;;;4.10;99.90;;;;;;4978318;28;20031;-72
2021/01/31 08:41:36;;;;;;;8.67;7.83;;;4.10;99.90;;;;;;4977895;28;20031;-71
2021/01/31 08:44:10;;;;;;;8.80;8.00;;;4.10;99.90;;;;;;4973942;28;20769;-71
2021/01/31 08:46:56;;;;;;;8.23;7.53;;;4.20;99.90;;;;;;5003441;28;20031;-72
2021/01/31 08:49:21;;;;;;;8.95;8.05;;;4.30;99.90;;;;;;4987193;28;20459;-71
2021/01/31 08:51:57;;;;;;;9.45;8.55;;;4.30;99.90;;;;;;4987700;28;20045;-72
2021/01/31 08:54:23;;;;;;;9.15;8.25;;;4.20;99.90;;;;;;4996567;28;20033;-72
2021/01/31 08:56:52;;;;;;;8.55;7.68;;;4.20;99.90;;;;;;4984981;28;20042;-72
2021/01/31 08:59:28;;;;;;;8.30;7.50;;;4.40;99.90;;;;;;4985439;28;20046;-72
2021/01/31 09:02:18;;;;;;;8.25;7.43;;;4.40;99.90;;;;;;4989376;28;20115;-71
2021/01/31 09:04:50;;;;;;;9.48;8.57;;;4.40;99.90;;;;;;4988876;28;20035;-71
2021/01/31 09:07:32;;;;;;;8.93;8.05;;;4.40;99.90;;;;;;4978337;28;20105;-72
2021/01/31 09:10:32;;;;;;;8.43;7.63;;;4.40;99.90;;;;;;4978822;28;20030;-71
2021/01/31 09:13:24;;;;;;;9.02;8.23;;;4.40;99.90;;;;;;4972579;28;20035;-71
2021/01/31 09:15:50;;;;;;;8.55;7.75;;;4.50;99.90;;;;;;4976173;28;20023;-72
2021/01/31 09:18:19;;;;;;;9.38;8.48;;;4.50;99.90;;;;;;4976110;28;20030;-70
2021/01/31 09:20:46;;;;;;;9.75;8.75;;;4.60;99.90;;;;;;4978345;28;20031;-72
2021/01/31 09:23:24;;;;;;;8.77;7.90;;;4.50;99.90;;;;;;4975900;28;20063;-72
2021/01/31 09:25:50;;;;;;;8.63;7.90;;;4.50;99.90;;;;;;4980384;28;20027;-71
2021/01/31 09:28:20;;;;;;;9.40;8.55;;;4.50;99.90;;;;;;4977241;28;20053;-73
2021/01/31 09:30:47;;;;;;;10.00;9.10;;;4.60;99.90;;;;;;4977979;28;20030;-72
2021/01/31 09:33:22;;;;;;;9.05;8.25;;;4.60;99.90;;;;;;4977831;28;20118;-72
2021/01/31 09:35:47;;;;;;;9.00;8.10;;;4.60;99.90;;;;;;4974970;28;20022;-72
2021/01/31 09:38:24;;;;;;;8.82;7.93;;;4.70;99.90;;;;;;4975210;28;20035;-72
2021/01/31 09:40:53;;;;;;;8.55;7.75;;;4.70;99.90;;;;;;4979538;28;20031;-71
2021/01/31 09:43:24;;;;;;;7.80;7.10;;;4.80;99.90;;;;;;4977130;28;20549;-72
2021/01/31 09:45:57;;;;;;;9.13;8.23;;;4.70;99.90;;;;;;4975456;28;20034;-72
2021/01/31 09:48:26;;;;;;;8.73;7.93;;;4.70;99.90;;;;;;4974754;28;20049;-71
2021/01/31 09:50:58;;;;;;;8.60;7.78;;;4.80;99.90;;;;;;4975064;28;20535;-73
2021/01/31 09:53:34;;;;;;;8.73;7.82;;;4.80;99.90;;;;;;4978850;28;20081;-71
2021/01/31 09:56:02;;;;;;;9.43;8.60;;;4.80;99.90;;;;;;4982386;28;20109;-71
2021/01/31 09:58:44;;;;;;;10.00;9.02;;;4.90;99.90;;;;;;4975867;28;20038;-74
2021/01/31 10:01:23;;;;;;;8.65;7.85;;;4.90;99.90;;;;;;4973273;28;20077;-73
2021/01/31 10:03:57;;;;;;;9.25;8.35;;;4.90;99.90;;;;;;4975198;28;20410;-72
2021/01/31 10:06:23;;;;;;;9.23;8.23;;;4.90;99.90;;;;;;4977943;28;20026;-72
2021/01/31 10:09:01;;;;;;;9.88;8.90;;;5.00;99.90;;;;;;4976336;28;20023;-73
2021/01/31 10:11:29;;;;;;;9.70;8.80;;;5.10;99.90;;;;;;4975687;28;20495;-72
2021/01/31 10:13:56;;;;;;;8.93;8.13;;;5.10;99.90;;;;;;4991181;28;20082;-71
2021/01/31 10:16:29;;;;;;;10.10;9.13;;;5.20;99.90;;;;;;4977876;28;20106;-72
2021/01/31 10:19:26;;;;;;;9.70;8.77;;;5.10;99.90;;;;;;4976426;28;20046;-72
2021/01/31 10:21:56;;;;;;;9.88;8.68;;;5.00;99.90;;;;;;4981875;28;20031;-71
2021/01/31 10:24:28;;;;;;;9.30;8.40;;;5.00;99.90;;;;;;4993075;28;20054;-71
2021/01/31 10:27:20;;;;;;;10.43;9.43;;;5.00;99.90;;;;;;4976426;28;20027;-72
2021/01/31 10:29:46;;;;;;;8.88;8.07;;;5.00;99.90;;;;;;4977746;28;20043;-72
2021/01/31 10:32:33;;;;;;;9.43;8.52;;;5.10;99.90;;;;;;4976774;28;20411;-73
2021/01/31 10:35:02;;;;;;;10.82;8.63;;;5.10;99.90;;;;;;4976283;28;20023;-71
2021/01/31 10:37:36;;;;;;;9.80;8.80;;;5.10;99.90;;;;;;4982533;28;20403;-72
2021/01/31 10:40:07;;;;;;;9.85;8.88;;;5.20;99.90;;;;;;4985481;28;20030;-71
2021/01/31 10:42:33;;;;;;;10.95;9.82;;;5.20;99.90;;;;;;4981249;28;20050;-73
2021/01/31 10:45:21;;;;;;;10.18;9.18;;;5.30;99.90;;;;;;4976056;28;20042;-70
2021/01/31 10:47:47;;;;;;;10.40;9.40;;;5.30;99.90;;;;;;4976390;28;20030;-71
2021/01/31 10:50:15;;;;;;;10.55;9.45;;;5.40;99.90;;;;;;4977641;28;20042;-72
2021/01/31 10:52:42;;;;;;;10.48;9.38;;;5.30;99.90;;;;;;4980225;28;20026;-71
2021/01/31 10:55:09;;;;;;;11.13;9.48;;;5.40;99.90;;;;;;4976295;28;20030;-72
2021/01/31 10:57:34;;;;;;;10.48;9.32;;;5.50;99.90;;;;;;4968469;28;20130;-72
2021/01/31 11:00:00;;;;;;;9.77;8.77;;;5.80;99.90;;;;;;4974574;28;20054;-71
2021/01/31 11:02:26;;;;;;;11.63;9.25;;;5.90;99.90;;;;;;4975260;28;20019;-74
2021/01/31 11:04:51;;;;;;;9.77;8.77;;;5.90;99.90;;;;;;4990447;28;20490;-74
2021/01/31 11:07:17;;;;;;;9.57;8.65;;;5.80;99.90;;;;;;4989878;28;20434;-72
2021/01/31 11:09:42;;;;;;;9.88;8.85;;;5.70;99.90;;;;;;4975359;28;20475;-72
2021/01/31 11:12:08;;;;;;;9.35;8.45;;;5.70;99.90;;;;;;4975160;28;20055;-70
2021/01/31 11:14:33;;;;;;;10.05;8.93;;;5.70;99.90;;;;;;4978064;28;20113;-72
2021/01/31 11:17:00;;;;;;;10.02;9.13;;;5.70;99.90;;;;;;4982094;28;20031;-72
2021/01/31 11:19:25;;;;;;;9.95;8.95;;;5.70;99.90;;;;;;4979435;28;20450;-72
2021/01/31 11:21:51;;;;;;;10.90;9.13;;;5.70;99.90;;;;;;4980959;28;20034;-72
2021/01/31 11:24:17;;;;;;;9.98;8.98;;;5.80;99.90;;;;;;4980386;28;20049;-72
2021/01/31 11:26:42;;;;;;;9.23;8.23;;;5.80;99.90;;;;;;4980499;28;20041;-72
2021/01/31 11:29:08;;;;;;;9.98;8.52;;;6.00;99.90;;;;;;4994351;28;20513;-72
2021/01/31 11:31:33;;;;;;;10.45;9.15;;;6.20;92.90;;;;;;4995526;28;20041;-71
2021/01/31 11:34:00;;;;;;;9.25;8.32;;;6.40;79.90;;;;;;4979051;28;20027;-73
2021/01/31 11:36:34;;;;;;;9.35;8.43;;;6.50;56.10;;;;;;4981253;28;20541;-74
2021/01/31 11:39:07;;;;;;;9.88;8.90;;;6.60;75.60;;;;;;4979975;28;20034;-72
2021/01/31 11:41:33;;;;;;;10.73;9.60;;;6.60;32.50;;;;;;4982927;28;20050;-72
2021/01/31 11:43:58;;;;;;;11.15;9.95;;;6.50;36.20;;;;;;4985418;28;20054;-73
2021/01/31 11:46:24;;;;;;;9.45;8.55;;;6.50;47.80;;;;;;4985878;28;20526;-72
2021/01/31 11:48:50;;;;;;;9.77;8.73;;;6.50;39.60;;;;;;4985669;28;20413;-71
2021/01/31 11:51:15;;;;;;;11.25;10.10;;;6.50;53.40;;;;;;4985017;28;20031;-71
2021/01/31 11:53:41;;;;;;;10.50;9.40;;;6.40;59.40;;;;;;4984382;28;20535;-74
2021/01/31 11:56:07;;;;;;;9.57;8.57;;;6.40;62.20;;;;;;4979394;28;20040;-72
2021/01/31 11:58:33;;;;;;;9.38;8.38;;;6.30;54.20;;;;;;4979775;28;20026;-71
2021/01/31 12:00:58;;;;;;;9.75;8.75;;;6.30;64.60;;;;;;4978685;28;20422;-72
2021/01/31 12:03:24;;;;;;;10.40;9.40;;;6.30;85.50;;;;;;4980688;28;20023;-73
2021/01/31 12:05:49;;;;;;;10.18;9.20;;;6.30;83.60;;;;;;4978447;28;20022;-73
2021/01/31 12:08:15;;;;;;;9.35;8.45;;;6.20;85.10;;;;;;4996463;28;20026;-72
2021/01/31 12:10:40;;;;;;;10.23;8.88;;;6.20;98.10;;;;;;4978568;28;20039;-75
2021/01/31 12:13:06;;;;;;;9.95;8.52;;;6.20;94.10;;;;;;4998963;28;20046;-72
2021/01/31 12:15:32;;;;;;;11.18;9.45;;;6.10;95.50;;;;;;4981326;28;20091;-73
2021/01/31 12:17:57;;;;;;;9.98;8.95;;;6.20;96.20;;;;;;4977515;28;20026;-73
2021/01/31 12:20:23;;;;;;;9.48;8.63;;;6.20;82.70;;;;;;4977300;28;20030;-71
2021/01/31 12:22:48;;;;;;;10.52;9.52;;;6.20;82.00;;;;;;4976057;28;20023;-69
2021/01/31 12:25:16;;;;;;;9.45;8.13;;;6.30;75.30;;;;;;4975496;28;20107;-68
2021/01/31 12:27:48;;;;;;;9.93;8.95;;;6.30;70.70;;;;;;4975474;28;20074;-71
2021/01/31 12:30:16;;;;;;;10.07;9.00;;;6.20;95.00;;;;;;4976603;28;20109;-71
2021/01/31 12:32:41;;;;;;;9.48;8.52;;;6.20;74.00;;;;;;4982344;28;20478;-72
2021/01/31 12:35:08;;;;;;;11.45;9.40;;;6.10;96.10;;;;;;4983109;28;20045;-71
2021/01/31 12:37:34;;;;;;;10.38;9.38;;;6.00;94.90;;;;;;4984500;28;20023;-71
2021/01/31 12:40:00;;;;;;;9.65;8.65;;;6.10;97.90;;;;;;4999678;28;20026;-71
2021/01/31 12:42:26;;;;;;;9.50;8.38;;;6.30;83.50;;;;;;4982524;28;20078;-71
2021/01/31 12:44:51;;;;;;;8.50;7.63;;;6.40;51.50;;;;;;4974189;28;20039;-71
2021/01/31 12:47:17;;;;;;;13.20;9.30;;;6.40;50.10;;;;;;4978975;28;20482;-72
2021/01/31 12:49:46;;;;;;;9.93;8.93;;;6.30;80.70;;;;;;4979287;28;20486;-73
2021/01/31 12:52:12;;;;;;;9.80;8.77;;;6.30;67.60;;;;;;4975880;28;20089;-71
2021/01/31 12:54:38;;;;;;;10.38;9.25;;;6.50;59.30;;;;;;4992034;28;20483;-71
2021/01/31 12:57:04;;;;;;;9.85;8.25;;;6.50;42.30;;;;;;4977407;28;20034;-70
2021/01/31 12:59:29;;;;;;;9.00;8.10;;;6.40;68.90;;;;;;4981247;28;20034;-70
2021/01/31 13:01:55;;;;;;;9.77;8.77;;;6.50;67.70;;;;;;4982407;28;20042;-71
2021/01/31 13:04:21;;;;;;;11.27;9.98;;;6.50;45.70;;;;;;4981405;28;20035;-72
2021/01/31 13:06:46;;;;;;;8.82;7.93;;;6.40;50.10;;;;;;4980621;28;20030;-72
2021/01/31 13:09:12;;;;;;;9.25;8.35;;;6.40;80.60;;;;;;4978605;28;20458;-71
2021/01/31 13:11:38;;;;;;;10.05;8.73;;;6.40;78.40;;;;;;4986182;28;20019;-72
2021/01/31 13:14:03;;;;;;;9.05;8.02;;;6.40;84.30;;;;;;4988511;28;20086;-71
2021/01/31 13:16:29;;;;;;;9.40;8.40;;;6.50;60.50;;;;;;4986083;28;20027;-71
2021/01/31 13:18:55;;;;;;;10.15;9.15;;;6.40;76.00;;;;;;5003648;28;20027;-70
2021/01/31 13:21:20;;;;;;;10.07;8.75;;;6.40;81.30;;;;;;4982334;28;20050;-70